Tous vos exploits sur  Logo Planète Marathon le site 100% Marathon

News de la planète Marathon

08/04/2018 - Premiers résultats du marathon de Paris.

logo Marathon de Paris

Course Handisport
1 Hiroko Nishida (JPN) 1:30:02
2 David Weir (GBR) 1:30:52
3 Jorge Madera Jimenez (ESP) 1:30:53
4 Julien Casoli (FRA) 1:32:15
5 Heinz Frei (SUI) 1:40:44
6 Jose Argenes Jimenez Hernandez (ESP) 1:42:12
7 Philippe Le Gouic (FRA) 1:49:57
8 Pascal Veillet (FRA) 1:50:01


Passage au semi-marathon :
Femmes : 1:10:21
Hommes : 1:03:01


L'éthiopienne Amane Gobena a dû abandonner suite à une chute à un ravitaillement.

40ème km -> Betsy Saina en tête chez les filles.
Trois hommes en tête :
Ngeno, Kisorio et Lonyangata.
41ème km -> Paul Lonyangata en route pour le doublé ! Il vient de rattraper la 1ère fille Betsy Saina. Il file vers l'arrivée pour le premier doublé depuis Steve Brace en 1989-1990.

Victoire de Paul Louyangata en 2:06:25 et de Betsy Saina en 2:22:55.
Kisorio 2ème et Ngeno 3ème.



Découvrez les 3 premiers avis :

Date Note Pseudo Avis
11/10/2018 - 14:31:35 15.60 zorronap J'étais assez stressé pour mon premier...
02/06/2018 - 13:16:57 16.80 Thepinkrunner Il faut être honnête, l'organisation s...
11/04/2018 - 07:20:47 16.40 Titi34 Parcours touristique de la capitale. Qq ...     Donnez votre avis sur l'édition 2018


Dernières news sur l'épreuve :

06/04/2018 L'élite femmes du marathon de Paris 2018.
05/04/2018 L'élite hommes du marathon de Paris 2018.
14/12/2017 42ème marathon de Paris le 8 avril 2018.
09/04/2017 Le 41ème marathon de Paris en direct.
09/04/2017 Marathon de Paris 2017 : résultats complets.            + de News


Résultats du 08/04/2018 - Classement complet - Marathon de Paris

Hommes
1- 2:06:25 Lonyangata Paul (KEN)
2- 2:06:36 Kisorio Mathew (KEN)
3- 2:06:41 Ngeno Ernest (KEN)
4- 2:07:00 Atnafu Yitayal (ETH)
5- 2:08:20 Kiptanui Eliud (KEN)
6- 2:08:31 Kosgei Martin (KEN)
7- 2:08:48 Kirui Kiprotich (KEN)
8- 2:08:55 Kiplagat Thomas (KEN)
9- 2:09:06 Kipsang Asbel (KEN)
10 2:09:59 Teshome Birhanu (ETH)
11 2:10:15 Mengistu Shumet (ETH)
12 2:11:19 Niyonkuru Abraham (BDI)
13 2:11:55 Kiptoo Mark (KEN)
14 2:13:25 Ngelel Willy (KEN)
15 2:14:23 Getachew Limenih (ETH)
16 2:14:47 Ndiema Erick (KEN)
17 2:15:13 Habarurema Jean-damascene
18 2:15:14 Navarro Nicolas
19 2:15:40 Kogo Micah (KEN)
20 2:15:41 Choquert Benjamin
21 2:18:06 Paquet Amaury (BEL)
22 2:19:07 Masciotra Julien
23 2:19:12 Courcieres Romain
24 2:20:29 Koizumi Yoshiki (JPN)
25 2:21:41 Vercruysse Filip (GER)
26 2:21:48 Kuroda Yuki (JPN)
27 (33) 2:25:01 Kai Hiroki (JPN)
28 (35) 2:25:26 Lalire Paul
29 (36) 2:25:46 Montero Remi
30 (38) 2:27:34 El Ouardi Hamza
31 (39) 2:27:53 Larson Kyle (USA)
32 (40) 2:27:55 Play Jean-christophe
33 (41) 2:27:59 Duhail Nicolas
34 (42) 2:28:17 Desrues Fabrice
35 (43) 2:29:43 Schneider Ben (USA)
36 (44) 2:30:06 Sbaa Abdel
37 (45) 2:30:08 Fasolo Florian
38 (46) 2:30:36 Bezancon Teddy
39 (47) 2:31:23 Holzerny Benoit
40 (48) 2:31:26 Souben Marc
41 (50) 2:31:37 Zimmermann Eric
42 (51) 2:31:41 Ane Jean-pierre
43 (52) 2:31:42 Yann Clement
44 (53) 2:31:42 Zalejski Nicolas
45 (54) 2:31:42 Denuit Guillaume
46 (55) 2:31:50 Piegelin Remi
47 (56) 2:31:59 Altmeyer Yoann
48 (57) 2:32:18 Urbelionis Dr. Karolis (LTU)
49 (58) 2:32:41 Ravaleu Stefan
50 (59) 2:32:43 Gandelot Benoit
51 (60) 2:33:22 Beillevert Laurent
52 (61) 2:33:30 Jaen Ortiz Henrry (CUB)
53 (62) 2:33:35 Coine Roland
54 (63) 2:33:57 Dubois Mathieu
55 (64) 2:34:00 Azahrai Mustapha (MAR)
56 (65) 2:34:16 Cheval Gregory
57 (66) 2:34:19 Villain Jean-noel
58 (67) 2:34:25 Gatineau Vincent
59 (68) 2:34:34 Hamon Frederic
60 (69) 2:34:42 Peretti Guillaume
61 (70) 2:34:44 Ferreira Filipe (POR)
62 (71) 2:34:54 Alexandre Pierre-emmanuel
63 (72) 2:34:59 Camidebach Gautier
64 (73) 2:35:04 Holland Adam (GBR)
65 (74) 2:35:10 Benfodda Menouar
66 (75) 2:35:26 Fotse Xavier
67 (76) 2:35:27 Stam Jan-willem
68 (77) 2:35:39 Haros Michael
69 (78) 2:35:52 Michon Jerome
70 (79) 2:36:11 Rhyner Daniel (SUI)
71 (80) 2:36:36 Vautier Stephane
72 (81) 2:36:50 Brun Romuald
73 (82) 2:36:54 Mann Robert (GBR)
74 (83) 2:37:14 Soules Jean
75 (84) 2:37:15 Chatelain Christophe

Femmes
1- (27) 2:22:56 Saina Betsy (KEN)
2- (28) 2:22:59 Chepngetich Ruth (KEN)
3- (29) 2:23:06 Chala Gulume (ETH)
4- (30) 2:23:27 Bekele Ashete (ETH)
5- (31) 2:23:43 Barsosio Stella (KEN)
6- (32) 2:24:08 Megra Marta (ETH)
7- (34) 2:25:02 Afework Abebech (ETH)
8- (37) 2:26:13 Takashima Yuka (JPN)
9- (49) 2:31:30 Mokonin Desi (BRN)
10 (92) 2:38:15 Yoshida Kasumi (JPN)
11 (102) 2:39:02 Mykhaylova Darya (UKR)
12 (112) 2:39:41 Alexandre Elodie
13 (166) 2:42:59 Felix Fanja
14 (225) 2:45:34 Shimoyama Kanae (JPN)
15 (314) 2:49:12 Castillo Tumbarell Yudileyvis (CUB)
16 (318) 2:49:17 Tanner Heather (USA)
17 (375) 2:51:01 Rousset Anne-lise
18 (419) 2:52:17 Glover Daisy (GBR)
19 (537) 2:54:52 Yuri Kano (JPN)
20 (565) 2:55:31 Fardell Jane (AUS)
21 (610) 2:56:19 Perez Maria Juliana (COL)
22 (654) 2:57:00 Kiriluk Sarah (BEL)
23 (665) 2:57:08 Desgue-pioline Lucie
24 (674) 2:57:19 Chollet Lena
25 (751) 2:58:08 Zalite Inga (LAT)
26 (814) 2:58:43 Verscheure Elodie
27 (828) 2:58:53 De Neef Florence (BEL)
28 (899) 2:59:37 Leene Nesrine (NED)
29 (962) 3:00:13 Demagny Anne-sophie
30 (1035) 3:01:17 Eastman Lyndsey (GBR)
31 (1085) 3:01:59 Probert Catriona (GBR)
32 (1150) 3:02:53 Ibbotson Helen (GBR)
33 (1256) 3:04:05 Douguet Patricia
34 (1376) 3:05:42 Pilla Monica (ITA)
35 (1380) 3:05:45 Martin Sophie
36 (1408) 3:06:04 Haagen Inez Anne (NED)
37 (1416) 3:06:08 Calvo Jessica
38 (1433) 3:06:19 Rousselon Marion
39 (1447) 3:06:32 Katoch Ellee
40 (1495) 3:07:00 Sundin Marika (SWE)
41 (1506) 3:07:05 Egan Alison (USA)
42 (1533) 3:07:27 Hallgren Helena (SWE)
43 (1544) 3:07:32 Viliamovskaia Marina (RUS)
44 (1552) 3:07:37 Walther Viola Veronique (GER)
45 (1576) 3:07:55 Gerber Christine (SUI)
46 (1610) 3:08:16 Medeiros Sandy (USA)
47 (1612) 3:08:17 Labruyere Emilie
48 (1703) 3:09:23 Beraud Marine
49 (1710) 3:09:29 Macritchie Susan (GBR)
50 (1731) 3:09:48 Aloisi Lucie
51 (1735) 3:09:50 Hanevy Alma (IRL)
52 (1749) 3:09:56 Allory Orianne
53 (1776) 3:10:13 Fernandes Tania (POR)
54 (1791) 3:10:26 Artis Veronique
55 (1794) 3:10:29 Zarina Resetina Zanda (LAT)
56 (1830) 3:10:52 Pestel Natacha
57 (1897) 3:11:29 Bourbigot Sarah
58 (1914) 3:11:40 Pinna Nawal
59 (1916) 3:11:42 De La Mettrie Aude
60 (1925) 3:11:45 Kermiche Khira
61 (2037) 3:12:39 Layani-moreno Sarah
62 (2045) 3:12:42 Lacroix Pauline
63 (2049) 3:12:43 Ehrhardt Prrisca
64 (2102) 3:13:08 Guasco Laila
65 (2134) 3:13:22 Viano Federica (ITA)
66 (2208) 3:13:55 Marin Aurelie
67 (2214) 3:13:56 Popek - Moczulska Ma?gorzata (POL)
68 (2237) 3:14:08 Damiana Monfreda (ITA)
69 (2275) 3:14:25 Pattyn Aurore
70 (2280) 3:14:29 Falandry Laure
71 (2298) 3:14:34 Akmanaviciute Gitana (LTU)
72 (2307) 3:14:38 Francastel Agnes
73 (2312) 3:14:39 Sousa Dantas Andrea V. (BRA)
74 (2331) 3:14:46 Chung Joan (CAN)
75 (2349) 3:14:50 Cossin Marion


Astuce : cliquez sur le nom d'un athlète souligné pour consulter sa fiche.